createdAt,value
2018-09-28T00:01:02.010Z,101636.94
2018-09-28T00:03:30.286Z,101643.25
2018-09-28T00:05:58.561Z,101642.80
2018-09-28T00:08:26.824Z,101637.46
2018-09-28T00:10:55.068Z,101639.23
2018-09-28T00:13:29.511Z,101642.81
2018-09-28T00:27:27.207Z,101655.23
2018-09-28T00:29:55.438Z,101666.86
2018-09-28T00:32:23.684Z,101668.59
2018-09-28T00:34:52.026Z,101671.25
2018-09-28T00:37:20.287Z,101666.65
2018-09-28T00:39:48.561Z,101673.77
2018-09-28T00:42:16.875Z,101663.55
2018-09-28T00:44:45.108Z,101683.95
2018-09-28T00:47:13.371Z,101672.91
2018-09-28T00:49:41.633Z,101679.94
2018-09-28T00:52:09.886Z,101684.37
2018-09-28T00:54:38.161Z,101681.58
2018-09-28T00:57:06.511Z,101680.84
2018-09-28T00:59:34.740Z,101685.96
2018-09-28T01:02:03.017Z,101684.31
2018-09-28T01:04:31.257Z,101692.28
2018-09-28T01:06:59.527Z,101695.39
2018-09-28T01:09:27.770Z,101697.98
2018-09-28T01:11:56.047Z,101696.67
2018-09-28T01:17:39.486Z,101689.48
2018-09-28T01:20:27.599Z,101692.15
2018-09-28T01:25:48.144Z,101694.83
2018-09-28T02:16:50.988Z,101734.13
2018-09-28T02:19:32.088Z,101734.53
2018-09-28T02:22:00.394Z,101736.70
2018-09-28T02:24:28.736Z,101737.70
2018-09-28T02:26:56.973Z,101731.34
2018-09-28T02:29:25.222Z,101730.45
2018-09-28T02:31:53.477Z,101739.48
2018-09-28T02:34:21.721Z,101732.07
2018-09-28T02:36:49.974Z,101741.86
2018-09-28T02:39:18.237Z,101740.47
2018-09-28T02:41:46.477Z,101743.19
2018-09-28T02:44:14.727Z,101746.55
2018-09-28T02:46:42.981Z,101748.80
2018-09-28T02:49:11.225Z,101749.09
2018-09-28T02:51:39.485Z,101751.36
2018-09-28T02:54:07.746Z,101741.73
2018-09-28T02:56:35.982Z,101751.38
2018-09-28T02:59:04.237Z,101748.77
2018-09-28T03:01:32.498Z,101746.86
2018-09-28T03:04:00.852Z,101755.63
2018-09-28T03:06:29.232Z,101745.19
2018-09-28T03:08:57.472Z,101757.92
2018-09-28T03:11:25.728Z,101764.27
2018-09-28T03:14:13.730Z,101760.98
2018-09-28T03:16:41.994Z,101758.84
2018-09-28T03:19:10.257Z,101771.50
2018-09-28T03:21:50.490Z,101778.65
2018-09-28T05:13:02.488Z,101886.44
2018-09-28T05:15:30.793Z,101899.83
2018-09-28T05:17:59.085Z,101904.69
2018-09-28T05:20:27.349Z,101910.60
2018-09-28T05:23:05.944Z,101907.64
2018-09-28T06:14:17.653Z,101953.44
2018-09-28T06:16:45.914Z,101956.95
2018-09-28T06:19:14.239Z,101962.95
2018-09-28T06:24:35.183Z,101958.45
2018-09-28T06:39:04.956Z,101966.55
2018-09-28T06:41:33.209Z,101977.86
2018-09-28T06:44:01.460Z,101983.55
2018-09-28T06:46:29.738Z,101966.78
2018-09-28T06:48:57.986Z,101977.07
2018-09-28T06:51:26.319Z,101982.02
2018-09-28T06:53:54.612Z,101998.31
2018-09-28T06:56:22.892Z,101999.45
2018-09-28T06:58:51.147Z,101998.14
2018-09-28T07:01:19.445Z,101997.47
2018-09-28T07:03:47.727Z,102010.73
2018-09-28T07:06:16.015Z,102001.38
2018-09-28T07:08:44.257Z,102007.36
2018-09-28T07:11:12.490Z,102022.55
2018-09-28T07:19:25.649Z,102038.72
2018-09-28T07:24:46.661Z,102034.55
2018-09-28T08:15:49.178Z,102098.70
2018-09-28T08:18:18.374Z,102105.22
2018-09-28T08:20:47.801Z,102100.21
2018-09-28T08:23:18.697Z,102108.37
2018-09-28T08:25:46.914Z,102119.25
2018-09-28T08:28:15.209Z,102103.60
2018-09-28T08:33:26.106Z,102116.45
2018-09-28T08:35:54.375Z,102111.07
2018-09-28T08:38:22.653Z,102109.61
2018-09-28T08:40:50.958Z,102122.70
2018-09-28T08:43:19.210Z,102118.36
2018-09-28T08:45:47.472Z,102120.66
2018-09-28T08:48:15.725Z,102116.40
2018-09-28T08:50:43.988Z,102133.12
2018-09-28T08:53:12.229Z,102134.03
2018-09-28T08:55:40.501Z,102141.41
2018-09-28T08:58:08.749Z,102144.93
2018-09-28T09:00:36.993Z,102140.73
2018-09-28T09:03:05.229Z,102143.98
2018-09-28T09:05:33.487Z,102148.22
2018-09-28T09:08:01.750Z,102150.48
2018-09-28T09:10:30.000Z,102148.77
2018-09-28T09:12:58.242Z,102158.10
2018-09-28T10:18:30.683Z,102162.39
2018-09-28T10:26:44.129Z,102172.25
2018-09-28T10:29:12.369Z,102181.21
2018-09-28T10:31:40.604Z,102172.70
2018-09-28T10:34:08.878Z,102176.30
2018-09-28T10:36:37.106Z,102173.59
2018-09-28T10:39:06.771Z,102173.63
2018-09-28T10:41:35.913Z,102177.18
2018-09-28T10:44:04.410Z,102193.36
2018-09-28T10:46:32.662Z,102187.03
2018-09-28T10:49:00.973Z,102183.48
2018-09-28T10:51:29.310Z,102187.92
2018-09-28T10:53:57.645Z,102174.97
2018-09-28T10:56:25.931Z,102181.01
2018-09-28T10:58:54.270Z,102188.41
2018-09-28T11:01:22.473Z,102180.33
2018-09-28T11:03:50.806Z,102181.55
2018-09-28T11:06:18.977Z,102177.59
2018-09-28T11:08:47.341Z,102183.47
2018-09-28T11:11:15.518Z,102181.66
2018-09-28T11:25:13.202Z,102188.86
2018-09-28T12:16:13.222Z,102208.14
2018-09-28T12:18:41.511Z,102235.75
2018-09-28T12:21:21.772Z,102237.62
2018-09-28T12:26:42.573Z,102226.49
2018-09-28T12:29:10.864Z,102223.41
2018-09-28T12:31:39.105Z,102234.14
2018-09-28T12:34:07.386Z,102226.67
2018-09-28T12:36:35.666Z,102221.05
2018-09-28T12:39:05.242Z,102215.78
2018-09-28T12:41:33.501Z,102219.36
2018-09-28T12:44:01.761Z,102223.39
2018-09-28T12:46:30.002Z,102224.73
2018-09-28T12:48:58.275Z,102224.41
2018-09-28T12:51:26.517Z,102227.34
2018-09-28T12:53:54.768Z,102241.31
2018-09-28T12:56:23.003Z,102227.80
2018-09-28T12:58:51.258Z,102243.08
2018-09-28T13:04:15.765Z,102238.64
2018-09-28T13:06:44.041Z,102246.28
2018-09-28T13:09:12.359Z,102253.90
2018-09-28T13:11:40.585Z,102248.06
2018-09-28T14:12:14.897Z,102257.88
2018-09-28T14:26:14.966Z,102269.59
2018-09-28T14:28:43.234Z,102270.48
2018-09-28T14:31:11.508Z,102273.20
2018-09-28T14:33:39.792Z,102273.53
2018-09-28T14:36:08.142Z,102279.98
2018-09-28T14:38:36.451Z,102292.16
2018-09-28T14:41:04.677Z,102296.14
2018-09-28T14:43:32.936Z,102283.18
2018-09-28T14:46:01.201Z,102282.85
2018-09-28T14:48:29.496Z,102281.84
2018-09-28T14:50:57.706Z,102270.41
2018-09-28T14:53:26.108Z,102276.69
2018-09-28T14:55:54.675Z,102278.76
2018-09-28T14:58:23.002Z,102277.08
2018-09-28T15:00:51.539Z,102273.34
2018-09-28T15:03:20.056Z,102269.48
2018-09-28T15:05:48.532Z,102275.36
2018-09-28T15:08:16.899Z,102274.88
2018-09-28T15:10:45.156Z,102271.31
2018-09-28T15:13:13.987Z,102282.31
2018-09-28T16:16:07.934Z,102324.52
2018-09-28T16:18:36.284Z,102330.37
2018-09-28T16:21:04.524Z,102323.23
2018-09-28T16:23:36.765Z,102330.25
2018-09-28T16:57:54.592Z,102347.97
2018-09-28T17:00:22.922Z,102349.53
2018-09-28T17:02:51.156Z,102353.47
2018-09-28T17:05:19.418Z,102348.16
2018-09-28T17:07:47.681Z,102352.11
2018-09-28T17:10:15.903Z,102370.42
2018-09-28T17:12:45.273Z,102372.61
2018-09-28T17:23:52.317Z,102378.09
2018-09-28T17:26:20.595Z,102381.80
2018-09-28T18:26:52.799Z,102442.84
2018-09-28T18:29:27.474Z,102441.44
2018-09-28T18:31:55.834Z,102444.98
2018-09-28T18:34:24.128Z,102447.46
2018-09-28T18:36:52.372Z,102449.12
2018-09-28T18:39:21.574Z,102448.05
2018-09-28T18:41:49.839Z,102447.19
2018-09-28T18:44:18.139Z,102447.30
2018-09-28T18:46:46.449Z,102450.52
2018-09-28T18:49:14.726Z,102441.47
2018-09-28T18:51:43.010Z,102442.80
2018-09-28T18:54:11.277Z,102445.48
2018-09-28T18:56:39.546Z,102452.17
2018-09-28T18:59:08.734Z,102446.45
2018-09-28T19:01:37.033Z,102456.21
2018-09-28T19:04:05.331Z,102448.08
2018-09-28T19:06:33.610Z,102458.97
2018-09-28T19:09:01.849Z,102460.27
2018-09-28T19:11:30.101Z,102473.25
2018-09-28T19:13:58.429Z,102470.66
2018-09-28T19:16:26.729Z,102472.13
2018-09-28T19:18:55.005Z,102479.98
2018-09-28T19:27:08.829Z,102485.70
2018-09-28T19:29:37.154Z,102490.27
2018-09-28T19:32:05.469Z,102498.45
2018-09-28T19:34:33.800Z,102496.41
2018-09-28T19:37:02.037Z,102492.34
2018-09-28T19:39:30.333Z,102495.00
2018-09-28T19:41:58.637Z,102506.02
2018-09-28T19:44:26.937Z,102505.48
2018-09-28T19:46:55.271Z,102499.56
2018-09-28T19:49:23.577Z,102501.48
2018-09-28T19:51:51.854Z,102498.55
2018-09-28T19:54:20.257Z,102509.79
2018-09-28T19:56:48.666Z,102506.17
2018-09-28T19:59:16.985Z,102517.18
2018-09-28T20:01:45.289Z,102509.14
2018-09-28T20:04:13.593Z,102521.06
2018-09-28T20:06:41.876Z,102517.22
2018-09-28T20:09:11.269Z,102523.42
2018-09-28T20:11:39.912Z,102534.27
2018-09-28T20:14:08.540Z,102530.39
2018-09-28T21:14:12.481Z,102590.34
2018-09-28T22:14:13.301Z,102611.76
2018-09-28T23:23:23.800Z,102656.81
